createdAt,value
2022-08-04T00:04:05.438Z,12.75
2022-08-04T00:07:47.243Z,11.13
2022-08-04T00:11:31.403Z,12.38
2022-08-04T00:15:16.468Z,10.68
2022-08-04T00:19:04.038Z,10.20
2022-08-04T00:22:46.548Z,11.45
2022-08-04T00:26:28.714Z,14.68
2022-08-04T00:30:10.878Z,8.88
2022-08-04T00:33:52.654Z,14.38
2022-08-04T00:37:34.525Z,14.85
2022-08-04T00:41:55.009Z,15.88
2022-08-04T00:46:16.051Z,11.35
2022-08-04T00:49:53.810Z,13.98
2022-08-04T00:53:49.653Z,13.13
2022-08-04T00:57:57.769Z,15.93
2022-08-04T01:02:20.571Z,13.63
2022-08-04T01:06:11.318Z,11.77
2022-08-04T01:10:01.868Z,9.85
2022-08-04T01:13:46.689Z,13.10
2022-08-04T01:18:06.469Z,10.70
2022-08-04T01:22:03.342Z,8.13
2022-08-04T01:25:51.210Z,16.10
2022-08-04T01:29:47.415Z,17.73
2022-08-04T01:33:31.010Z,15.25
2022-08-04T01:37:57.754Z,17.33
2022-08-04T01:41:39.542Z,14.60
2022-08-04T01:45:21.806Z,15.65
2022-08-04T01:49:03.660Z,15.95
2022-08-04T01:52:50.749Z,14.35
2022-08-04T01:56:32.885Z,7.53
2022-08-04T02:00:16.732Z,13.73
2022-08-04T02:04:18.363Z,21.85
2022-08-04T02:08:12.667Z,14.85
2022-08-04T02:12:22.464Z,18.75
2022-08-04T02:16:22.058Z,20.67
2022-08-04T02:20:16.585Z,11.02
2022-08-04T02:24:07.078Z,11.90
2022-08-04T02:28:01.067Z,11.93
2022-08-04T02:31:54.939Z,25.92
2022-08-04T02:35:38.119Z,11.57
2022-08-04T02:39:20.826Z,12.70
2022-08-04T02:43:03.075Z,11.93
2022-08-04T02:46:44.870Z,14.27
2022-08-04T02:50:28.995Z,10.60
2022-08-04T02:54:11.352Z,8.43
2022-08-04T02:57:53.143Z,15.52
2022-08-04T03:01:35.229Z,12.65
2022-08-04T03:05:25.845Z,9.73
2022-08-04T03:09:46.643Z,10.27
2022-08-04T03:13:37.222Z,14.10
2022-08-04T03:17:53.649Z,11.65
2022-08-04T03:22:02.762Z,21.13
2022-08-04T03:25:57.264Z,17.80
2022-08-04T03:29:57.965Z,13.18
2022-08-04T03:33:51.222Z,13.90
2022-08-04T03:37:51.491Z,13.32
2022-08-04T03:42:03.520Z,10.07
2022-08-04T03:45:58.268Z,8.90
2022-08-04T03:50:02.032Z,11.93
2022-08-04T03:53:54.292Z,13.77
2022-08-04T03:58:10.230Z,10.85
2022-08-04T04:02:08.146Z,13.68
2022-08-04T04:06:15.179Z,12.47
2022-08-04T04:10:29.545Z,7.55
2022-08-04T04:14:43.794Z,7.95
2022-08-04T04:18:35.624Z,15.02
2022-08-04T04:22:42.003Z,14.30
2022-08-04T04:26:40.380Z,11.02
2022-08-04T04:30:45.851Z,12.52
2022-08-04T04:34:46.584Z,6.50
2022-08-04T04:38:37.099Z,8.80
2022-08-04T04:42:49.825Z,15.73
2022-08-04T04:46:38.922Z,10.07
2022-08-04T04:50:44.917Z,12.95
2022-08-04T04:54:46.227Z,11.77
2022-08-04T04:58:28.047Z,11.93
2022-08-04T05:02:34.890Z,8.10
2022-08-04T05:06:35.230Z,9.75
2022-08-04T05:10:17.042Z,15.85
2022-08-04T05:14:35.738Z,11.38
2022-08-04T05:18:09.625Z,11.40
2022-08-04T05:21:58.097Z,15.10
2022-08-04T05:25:58.758Z,12.95
2022-08-04T05:29:51.780Z,8.82
2022-08-04T05:33:43.147Z,12.02
2022-08-04T05:37:24.990Z,13.13
2022-08-04T05:41:12.145Z,14.40
2022-08-04T05:44:54.486Z,11.43
2022-08-04T05:48:36.301Z,14.27
2022-08-04T05:52:18.091Z,17.30
2022-08-04T05:56:00.625Z,13.70
2022-08-04T05:59:46.450Z,12.45
2022-08-04T06:03:29.867Z,14.10
2022-08-04T06:07:11.672Z,12.60
2022-08-04T06:10:53.789Z,14.98
2022-08-04T06:14:40.745Z,15.70
2022-08-04T06:19:58.941Z,7.53
2022-08-04T06:22:24.444Z,10.05
2022-08-04T06:26:06.900Z,5.65
2022-08-04T06:29:51.459Z,10.98
2022-08-04T06:33:55.003Z,13.27
2022-08-04T06:37:42.439Z,9.57
2022-08-04T06:41:26.305Z,11.75
2022-08-04T06:45:08.535Z,14.63
2022-08-04T06:48:50.351Z,9.05
2022-08-04T06:52:32.283Z,8.20
2022-08-04T06:56:15.806Z,11.75
2022-08-04T07:00:03.658Z,7.88
2022-08-04T07:03:45.573Z,13.10
2022-08-04T07:07:36.592Z,12.02
2022-08-04T07:11:44.157Z,15.48
2022-08-04T07:15:27.043Z,23.35
2022-08-04T07:19:10.566Z,14.25
2022-08-04T07:22:53.962Z,16.15
2022-08-04T07:26:35.775Z,12.60
2022-08-04T07:30:20.635Z,11.70
2022-08-04T07:34:17.395Z,13.75
2022-08-04T07:38:03.423Z,8.30
2022-08-04T07:41:48.882Z,9.80
2022-08-04T07:45:30.879Z,11.20
2022-08-04T07:49:12.777Z,13.35
2022-08-04T07:53:54.117Z,11.20
2022-08-04T07:57:40.041Z,11.40
2022-08-04T08:01:23.624Z,13.88
2022-08-04T08:05:05.776Z,10.38
2022-08-04T08:08:47.613Z,10.02
2022-08-04T08:12:37.697Z,7.10
2022-08-04T08:16:33.618Z,14.23
2022-08-04T08:20:15.492Z,12.52
2022-08-04T08:24:12.776Z,8.45
2022-08-04T08:27:55.776Z,6.22
2022-08-04T08:31:57.449Z,6.50
2022-08-04T08:36:01.008Z,11.35
2022-08-04T08:39:59.447Z,6.00
2022-08-04T08:44:29.992Z,8.25
2022-08-04T08:48:25.103Z,8.93
2022-08-04T08:52:57.288Z,11.43
2022-08-04T08:56:47.917Z,8.07
2022-08-04T09:00:47.822Z,7.65
2022-08-04T09:05:00.238Z,11.15
2022-08-04T09:09:01.580Z,4.80
2022-08-04T09:13:05.067Z,5.63
2022-08-04T09:17:02.784Z,5.65
2022-08-04T09:20:49.319Z,4.47
2022-08-04T09:24:51.162Z,6.22
2022-08-04T09:28:53.683Z,4.72
2022-08-04T09:32:39.759Z,7.20
2022-08-04T09:36:43.421Z,4.47
2022-08-04T09:40:52.458Z,3.50
2022-08-04T09:45:06.599Z,5.53
2022-08-04T09:49:16.345Z,5.40
2022-08-04T09:53:06.820Z,7.28
2022-08-04T09:57:16.503Z,4.35
2022-08-04T10:01:03.144Z,3.83
2022-08-04T10:04:45.022Z,6.22
2022-08-04T10:08:56.951Z,6.00
2022-08-04T10:12:50.470Z,8.10
2022-08-04T10:16:44.577Z,2.58
2022-08-04T10:20:59.989Z,2.13
2022-08-04T10:25:40.458Z,2.58
2022-08-04T10:29:47.312Z,4.70
2022-08-04T10:33:32.212Z,2.28
2022-08-04T10:37:59.795Z,1.23
2022-08-04T10:41:38.162Z,4.22
2022-08-04T10:45:23.800Z,2.53
2022-08-04T10:49:36.713Z,1.97
2022-08-04T10:53:20.777Z,1.25
2022-08-04T10:57:08.891Z,1.65
2022-08-04T11:00:54.291Z,1.77
2022-08-04T11:04:47.558Z,3.47
2022-08-04T11:08:43.405Z,3.40
2022-08-04T11:12:26.031Z,1.73
2022-08-04T11:16:13.580Z,1.02
2022-08-04T11:20:34.049Z,0.88
2022-08-04T11:24:22.843Z,0.50
2022-08-04T11:28:30.602Z,2.58
2022-08-04T11:32:20.848Z,1.20
2022-08-04T11:36:18.612Z,0.88
2022-08-04T11:40:12.889Z,3.45
2022-08-04T11:44:03.342Z,1.27
2022-08-04T11:48:07.193Z,3.10
2022-08-04T11:51:49.007Z,1.65
2022-08-04T11:55:30.866Z,3.22
2022-08-04T11:59:12.697Z,5.72
2022-08-04T12:03:18.142Z,2.72
2022-08-04T12:07:40.638Z,2.20
2022-08-04T12:11:25.048Z,2.83
2022-08-04T12:15:15.591Z,2.30
2022-08-04T12:19:06.676Z,4.75
2022-08-04T12:22:50.557Z,3.40
2022-08-04T12:26:38.501Z,2.97
2022-08-04T12:31:00.535Z,2.25
2022-08-04T12:34:25.300Z,3.20
2022-08-04T12:38:15.219Z,2.72
2022-08-04T12:42:20.837Z,1.27
2022-08-04T12:46:05.119Z,2.60
2022-08-04T12:50:00.263Z,1.55
2022-08-04T12:53:51.393Z,1.77
2022-08-04T12:57:34.280Z,2.97
2022-08-04T13:02:10.744Z,1.65
2022-08-04T13:05:22.271Z,2.72
2022-08-04T13:09:06.629Z,4.00
2022-08-04T13:13:00.393Z,4.03
2022-08-04T13:16:42.246Z,1.67
2022-08-04T13:20:36.439Z,1.40
2022-08-04T13:24:22.819Z,3.08
2022-08-04T13:28:27.105Z,2.37
2022-08-04T13:32:09.188Z,2.15
2022-08-04T13:35:54.820Z,3.78
2022-08-04T13:39:38.185Z,0.95
2022-08-04T13:44:15.535Z,3.03
2022-08-04T13:47:30.512Z,2.85
2022-08-04T13:51:12.389Z,2.35
2022-08-04T13:54:54.234Z,3.63
2022-08-04T13:58:41.002Z,3.08
2022-08-04T14:02:39.275Z,1.73
2022-08-04T14:06:34.771Z,4.13
2022-08-04T14:10:16.612Z,6.28
2022-08-04T14:13:58.446Z,1.95
2022-08-04T14:17:40.276Z,5.35
2022-08-04T14:21:22.189Z,4.82
2022-08-04T14:25:15.302Z,5.28
2022-08-04T14:29:27.376Z,1.73
2022-08-04T14:34:00.987Z,1.92
2022-08-04T14:37:19.553Z,3.13
2022-08-04T14:41:02.151Z,3.65
2022-08-04T14:44:58.003Z,2.05
2022-08-04T14:48:42.965Z,1.97
2022-08-04T14:52:26.269Z,4.03
2022-08-04T14:56:20.057Z,5.43
2022-08-04T15:00:13.519Z,1.27
2022-08-04T15:03:57.686Z,2.22
2022-08-04T15:07:39.488Z,3.92
2022-08-04T15:11:23.396Z,1.73
2022-08-04T15:15:34.022Z,3.67
2022-08-04T15:19:08.066Z,2.85
2022-08-04T15:22:49.935Z,3.30
2022-08-04T15:26:39.657Z,4.72
2022-08-04T15:30:21.502Z,1.10
2022-08-04T15:34:03.316Z,3.35
2022-08-04T15:38:06.504Z,2.38
2022-08-04T15:41:55.774Z,0.40
2022-08-04T15:46:02.529Z,2.83
2022-08-04T15:50:08.427Z,4.53
2022-08-04T15:54:03.657Z,2.25
2022-08-04T15:58:14.161Z,4.68
2022-08-04T16:02:34.614Z,0.70
2022-08-04T16:06:16.543Z,3.33
2022-08-04T16:10:44.359Z,3.08
2022-08-04T16:14:33.663Z,2.08
2022-08-04T16:18:30.772Z,8.05
2022-08-04T16:22:14.014Z,2.85
2022-08-04T16:25:55.891Z,2.78
2022-08-04T16:29:39.601Z,2.22
2022-08-04T16:33:28.099Z,1.25
2022-08-04T16:37:38.786Z,2.63
2022-08-04T16:41:38.730Z,1.10
2022-08-04T16:45:20.560Z,1.75
2022-08-04T16:49:05.942Z,1.00
2022-08-04T16:52:49.197Z,2.40
2022-08-04T16:56:33.776Z,1.92
2022-08-04T17:00:16.341Z,1.50
2022-08-04T17:04:04.617Z,2.72
2022-08-04T17:08:13.141Z,1.60
2022-08-04T17:12:02.234Z,1.58
2022-08-04T17:15:44.335Z,3.08
2022-08-04T17:19:26.986Z,1.80
2022-08-04T17:24:16.307Z,1.38
2022-08-04T17:28:08.889Z,2.85
2022-08-04T17:31:47.050Z,1.33
2022-08-04T17:35:38.551Z,2.22
2022-08-04T17:39:22.998Z,2.25
2022-08-04T17:44:03.052Z,1.00
2022-08-04T17:47:19.545Z,0.40
2022-08-04T17:55:20.480Z,2.17
2022-08-04T17:59:14.859Z,0.73
2022-08-04T18:03:29.961Z,2.78
2022-08-04T18:08:38.803Z,1.02
2022-08-04T18:11:21.953Z,1.38
2022-08-04T18:15:21.296Z,1.85
2022-08-04T18:19:14.719Z,0.25
2022-08-04T18:22:56.661Z,2.72
2022-08-04T18:26:39.397Z,1.05
2022-08-04T18:30:39.085Z,1.55
2022-08-04T18:34:27.046Z,1.48
2022-08-04T18:38:22.083Z,1.10
2022-08-04T18:42:04.749Z,3.42
2022-08-04T18:45:51.433Z,2.95
2022-08-04T18:51:00.231Z,3.63
2022-08-04T18:53:36.211Z,4.40
2022-08-04T18:57:32.851Z,4.38
2022-08-04T19:01:29.577Z,1.33
2022-08-04T19:05:17.594Z,1.02
2022-08-04T19:09:01.218Z,1.38
2022-08-04T19:12:43.036Z,3.63
2022-08-04T19:16:31.491Z,2.90
2022-08-04T19:20:24.264Z,3.88
2022-08-04T19:24:27.909Z,3.97
2022-08-04T19:28:09.805Z,2.50
2022-08-04T19:31:59.751Z,9.32
2022-08-04T19:35:46.013Z,8.35
2022-08-04T19:39:28.123Z,9.07
2022-08-04T19:43:14.502Z,4.85
2022-08-04T19:47:00.444Z,3.95
2022-08-04T19:50:43.992Z,1.85
2022-08-04T19:54:27.563Z,1.70
2022-08-04T19:58:09.526Z,2.58
2022-08-04T20:01:51.953Z,5.57
2022-08-04T20:05:54.905Z,2.65
2022-08-04T20:09:37.677Z,3.92
2022-08-04T20:13:25.456Z,7.70
2022-08-04T20:17:12.898Z,3.50
2022-08-04T20:21:00.138Z,4.90
2022-08-04T20:24:50.398Z,3.47
2022-08-04T20:28:42.016Z,3.92
2022-08-04T20:32:28.084Z,10.90
2022-08-04T20:36:10.085Z,4.32
2022-08-04T20:39:57.988Z,7.03
2022-08-04T20:43:39.786Z,4.65
2022-08-04T20:47:23.275Z,5.13
2022-08-04T20:51:05.593Z,5.22
2022-08-04T20:54:48.532Z,5.32
2022-08-04T20:58:30.834Z,5.40
2022-08-04T21:02:16.464Z,3.28
2022-08-04T21:05:58.587Z,8.77
2022-08-04T21:09:50.990Z,2.72
2022-08-04T21:13:50.527Z,4.03
2022-08-04T21:17:57.531Z,2.58
2022-08-04T21:21:38.051Z,8.15
2022-08-04T21:25:20.274Z,7.80
2022-08-04T21:29:03.837Z,3.92
2022-08-04T21:32:45.791Z,4.68
2022-08-04T21:36:29.534Z,6.32
2022-08-04T21:40:14.195Z,6.97
2022-08-04T21:43:58.585Z,12.80
2022-08-04T21:47:46.418Z,7.35
2022-08-04T21:51:57.792Z,12.20
2022-08-04T21:56:06.324Z,7.30
2022-08-04T21:59:45.892Z,12.32
2022-08-04T22:07:50.898Z,14.80
2022-08-04T22:19:50.005Z,7.03
2022-08-04T22:23:45.601Z,11.05
2022-08-04T22:27:54.939Z,9.10
2022-08-04T22:31:56.876Z,8.40
2022-08-04T22:35:44.172Z,5.88
2022-08-04T22:39:31.404Z,10.48
2022-08-04T22:43:32.358Z,8.65
2022-08-04T22:47:20.176Z,5.78
2022-08-04T22:51:03.048Z,6.15
2022-08-04T22:54:45.317Z,12.73
2022-08-04T22:58:28.542Z,10.00
2022-08-04T23:02:10.569Z,9.55
2022-08-04T23:05:52.567Z,6.07
2022-08-04T23:09:49.960Z,5.60
2022-08-04T23:13:33.247Z,10.52
2022-08-04T23:17:15.249Z,4.18
2022-08-04T23:20:57.776Z,5.13
2022-08-04T23:24:39.568Z,8.80
2022-08-04T23:28:22.985Z,4.82
2022-08-04T23:32:06.176Z,5.55
2022-08-04T23:35:47.941Z,6.68
2022-08-04T23:40:03.337Z,6.30
2022-08-04T23:43:38.543Z,7.03
2022-08-04T23:48:18.419Z,6.95
2022-08-04T23:51:33.089Z,6.15
2022-08-04T23:55:15.780Z,8.57
2022-08-04T23:59:03.962Z,4.78
